Oakland Heights, WI

8:46 PM CST on January 17, 2017 (GMT -0600)
UW | | Change Station
Active Advisory: Special Statement

Elev 892 ft 43.07 °N, 89.41 °W | Updated 37 seconds ago

Overcast
Overcast
34.0 °F
Feels Like 34 °F
N
0.0
Wind Variable Wind from NNW
Gusts 6.0 mph

Today
High -- | Low -- °F
--% Chance of Precip.
Yesterday
High -- | Low -- °F
Precip. -- in
Pressure 29.97 in
Visibility 2.0 miles
Clouds Overcast 400 ft
Windchill 34 °F
Dew Point 33 °F
Humidity 95%
Rainfall 0.04 in
Snow Depth Not available.
7:25 AM 4:51 PM
Waning Gibbous, 67% visible
SPECI KMSN 180230Z 28004KT 2SM -DZ BR OVC004 01/01 A2997 RMK AO2 SFC VIS 3 P0000 T00110006
Pressure 29.97 in
Visibility 2.0 miles
Clouds Overcast 400 ft
Windchill 34 °F
Dew Point 33 °F
Humidity 95%
Rainfall 0.04 in
Snow Depth Not available.
7:25 AM 4:51 PM
Waning Gibbous, 67% visible
SPECI KMSN 180230Z 28004KT 2SM -DZ BR OVC004 01/01 A2997 RMK AO2 SFC VIS 3 P0000 T00110006

Get Your Daily Forecast Email!

Thanks for signing up!

Be on the lookout for a verification email in your inbox.

You'll start receiving the daily forecast at 8 AM.

×

10-Day Weather Forecast

Almanac

Astronomy

Jan. 17, 2017 Rise Set
Actual Time
Civil Twilight
Nautical Twilight
Astronomical Twilight
Moon
Length of Visible Light
Length of Day
Tomorrow will be .
, % of the Moon is Illuminated

Today's Extremes

State Highs State Lows

Community

WunderPhotos

Upload Photos

1,962,540 photos uploaded!

WunderBlog® & News

Nearby

Air Quality

  Air Quality AQ Index Pollutant
Not available.

Snow Depth

Station Depth Elevation

Earthquake Activity

City Distance Mag. Time & Date
Minimum magnitude displayed is 2.5.

Coastal Water Temperatures

Place Temperature

Stations

Nearby Weather Stations

Station Location Temp. Windchill Dew Point Humidity Wind Precip. Elev Updated Type
                   

Watches & Warnings

Special Statement
Issued: 3:46 PM CST Jan. 17, 2017 – National Weather Service

... Untreated surfaces expected to become icy overnight...

Temperatures are expected to hover just above freezing through the
evening until rain showers diminish. Then falling temperatures
into the upper 20s will allow any wet, untreated roads and
sidewalks to refreeze and become icy overnight.

Use caution when traveling overnight into Wednesday morning.


Mrc

346 PM CST Tue Jan 17 2017

... Untreated surfaces expected to become icy overnight...

Temperatures are expected to hover just above freezing through the
evening until rain showers diminish. Then falling temperatures
into the upper 20s will allow any wet, untreated roads and
sidewalks to refreeze and become icy overnight.

Use caution when traveling overnight into Wednesday morning.


Mrc